sensor_id;sensor_type;location;lat;lon;timestamp;pressure;altitude;pressure_sealevel;temperature;humidity
66385;BME280;53426;55.872;37.462;2023-02-03T00:02:08;98457.31;;;0.32;74.01
66385;BME280;53426;55.872;37.462;2023-02-03T00:04:39;98456.47;;;0.31;73.73
66385;BME280;53426;55.872;37.462;2023-02-03T00:07:05;98443.25;;;0.34;73.76
66385;BME280;53426;55.872;37.462;2023-02-03T00:09:33;98457.41;;;0.45;73.97
66385;BME280;53426;55.872;37.462;2023-02-03T00:12:06;98458.34;;;0.44;73.51
66385;BME280;53426;55.872;37.462;2023-02-03T00:14:35;98461.88;;;0.43;73.95
66385;BME280;53426;55.872;37.462;2023-02-03T00:17:06;98446.16;;;0.30;73.56
66385;BME280;53426;55.872;37.462;2023-02-03T00:19:38;98453.31;;;0.26;74.29
66385;BME280;53426;55.872;37.462;2023-02-03T00:22:10;98458.59;;;0.25;73.82
66385;BME280;53426;55.872;37.462;2023-02-03T00:24:40;98457.75;;;0.24;74.60
66385;BME280;53426;55.872;37.462;2023-02-03T00:27:05;98466.50;;;0.23;74.20
66385;BME280;53426;55.872;37.462;2023-02-03T00:29:39;98459.59;;;0.22;74.13
66385;BME280;53426;55.872;37.462;2023-02-03T00:32:09;98461.75;;;0.16;74.86
66385;BME280;53426;55.872;37.462;2023-02-03T00:34:35;98459.16;;;0.30;74.50
66385;BME280;53426;55.872;37.462;2023-02-03T00:37:01;98461.69;;;0.31;74.62
66385;BME280;53426;55.872;37.462;2023-02-03T00:39:27;98453.69;;;0.20;74.69
66385;BME280;53426;55.872;37.462;2023-02-03T00:41:53;98452.94;;;0.32;74.21
66385;BME280;53426;55.872;37.462;2023-02-03T00:44:18;98453.13;;;0.29;74.15
66385;BME280;53426;55.872;37.462;2023-02-03T00:46:44;98453.16;;;0.44;74.00
66385;BME280;53426;55.872;37.462;2023-02-03T00:49:10;98455.75;;;0.44;74.09
66385;BME280;53426;55.872;37.462;2023-02-03T00:51:36;98442.41;;;0.34;73.69
66385;BME280;53426;55.872;37.462;2023-02-03T00:54:02;98452.94;;;0.32;74.02
66385;BME280;53426;55.872;37.462;2023-02-03T00:56:28;98439.75;;;0.35;73.95
66385;BME280;53426;55.872;37.462;2023-02-03T00:58:55;98440.66;;;0.34;73.87
66385;BME280;53426;55.872;37.462;2023-02-03T01:01:32;98440.47;;;0.23;74.27
66385;BME280;53426;55.872;37.462;2023-02-03T01:03:59;98443.75;;;0.27;74.73
66385;BME280;53426;55.872;37.462;2023-02-03T01:06:28;98444.66;;;0.26;74.39
66385;BME280;53426;55.872;37.462;2023-02-03T01:08:56;98448.75;;;0.30;75.14
66385;BME280;53426;55.872;37.462;2023-02-03T01:11:26;98446.63;;;0.36;74.64
66385;BME280;53426;55.872;37.462;2023-02-03T01:13:58;98446.44;;;0.39;74.75
66385;BME280;53426;55.872;37.462;2023-02-03T01:16:29;98442.81;;;0.42;74.97
66385;BME280;53426;55.872;37.462;2023-02-03T01:19:02;98447.34;;;0.38;74.81
66385;BME280;53426;55.872;37.462;2023-02-03T01:21:34;98438.41;;;0.28;74.86
66385;BME280;53426;55.872;37.462;2023-02-03T01:24:03;98440.59;;;0.22;75.20
66385;BME280;53426;55.872;37.462;2023-02-03T01:26:31;98437.59;;;0.14;75.79
66385;BME280;53426;55.872;37.462;2023-02-03T01:29:02;98446.59;;;0.08;76.03
66385;BME280;53426;55.872;37.462;2023-02-03T01:31:36;98443.06;;;0.09;76.41
66385;BME280;53426;55.872;37.462;2023-02-03T01:34:12;98448.91;;;0.13;76.25
66385;BME280;53426;55.872;37.462;2023-02-03T01:36:39;98440.19;;;0.14;75.84
66385;BME280;53426;55.872;37.462;2023-02-03T01:39:04;98444.38;;;0.16;75.92
66385;BME280;53426;55.872;37.462;2023-02-03T01:41:36;98444.41;;;0.00;76.43
66385;BME280;53426;55.872;37.462;2023-02-03T01:44:39;98442.50;;;0.18;76.41
66385;BME280;53426;55.872;37.462;2023-02-03T01:47:27;98442.16;;;0.24;75.75
66385;BME280;53426;55.872;37.462;2023-02-03T01:52:41;98433.34;;;0.27;76.38
66385;BME280;53426;55.872;37.462;2023-02-03T01:55:13;98416.00;;;0.12;76.51
66385;BME280;53426;55.872;37.462;2023-02-03T01:57:55;98435.44;;;0.34;76.51
66385;BME280;53426;55.872;37.462;2023-02-03T02:00:24;98417.97;;;0.08;76.82
66385;BME280;53426;55.872;37.462;2023-02-03T02:02:53;98434.91;;;0.15;76.94
66385;BME280;53426;55.872;37.462;2023-02-03T02:05:27;98429.38;;;0.06;76.94
66385;BME280;53426;55.872;37.462;2023-02-03T02:07:55;98421.41;;;0.09;77.20
66385;BME280;53426;55.872;37.462;2023-02-03T02:10:24;98425.69;;;0.10;77.39
66385;BME280;53426;55.872;37.462;2023-02-03T02:12:54;98424.09;;;0.07;77.39
66385;BME280;53426;55.872;37.462;2023-02-03T02:15:26;98423.66;;;0.15;77.40
66385;BME280;53426;55.872;37.462;2023-02-03T02:18:20;98433.78;;;0.19;77.31
66385;BME280;53426;55.872;37.462;2023-02-03T02:32:28;98437.13;;;0.21;77.15
66385;BME280;53426;55.872;37.462;2023-02-03T02:36:04;98426.53;;;0.24;77.00
66385;BME280;53426;55.872;37.462;2023-02-03T02:38:29;98425.22;;;0.17;77.44
66385;BME280;53426;55.872;37.462;2023-02-03T02:41:05;98419.56;;;0.25;77.71
66385;BME280;53426;55.872;37.462;2023-02-03T02:48:44;98417.97;;;0.22;77.46
66385;BME280;53426;55.872;37.462;2023-02-03T02:51:13;98427.72;;;0.19;77.75
66385;BME280;53426;55.872;37.462;2023-02-03T02:53:45;98410.91;;;0.10;78.07
66385;BME280;53426;55.872;37.462;2023-02-03T02:56:13;98410.78;;;0.12;78.36
66385;BME280;53426;55.872;37.462;2023-02-03T02:58:41;98421.88;;;0.15;78.03
66385;BME280;53426;55.872;37.462;2023-02-03T03:01:09;98427.94;;;0.16;77.81
66385;BME280;53426;55.872;37.462;2023-02-03T03:03:37;98430.78;;;0.11;78.32
66385;BME280;53426;55.872;37.462;2023-02-03T03:06:11;98427.03;;;0.01;78.62
66385;BME280;53426;55.872;37.462;2023-02-03T03:08:53;98427.63;;;0.06;78.67
66385;BME280;53426;55.872;37.462;2023-02-03T03:11:25;98428.00;;;0.14;78.43
66385;BME280;53426;55.872;37.462;2023-02-03T03:13:58;98421.56;;;0.06;78.84
66385;BME280;53426;55.872;37.462;2023-02-03T03:16:26;98425.41;;;0.14;78.55
66385;BME280;53426;55.872;37.462;2023-02-03T03:18:59;98411.16;;;-0.09;78.69
66385;BME280;53426;55.872;37.462;2023-02-03T03:21:34;98413.88;;;0.04;78.43
66385;BME280;53426;55.872;37.462;2023-02-03T03:24:02;98428.84;;;0.15;78.54
66385;BME280;53426;55.872;37.462;2023-02-03T03:26:48;98428.44;;;0.07;78.55
66385;BME280;53426;55.872;37.462;2023-02-03T03:29:32;98419.06;;;0.04;78.58
66385;BME280;53426;55.872;37.462;2023-02-03T03:32:01;98414.34;;;0.11;78.52
66385;BME280;53426;55.872;37.462;2023-02-03T03:34:28;98423.91;;;0.10;78.35
66385;BME280;53426;55.872;37.462;2023-02-03T03:37:24;98428.22;;;0.25;78.47
66385;BME280;53426;55.872;37.462;2023-02-03T03:39:57;98430.72;;;0.27;78.29
66385;BME280;53426;55.872;37.462;2023-02-03T03:45:01;98426.53;;;0.38;77.98
66385;BME280;53426;55.872;37.462;2023-02-03T03:48:22;98437.69;;;0.40;77.98
66385;BME280;53426;55.872;37.462;2023-02-03T03:50:36;98431.28;;;0.46;77.90
66385;BME280;53426;55.872;37.462;2023-02-03T03:53:08;98424.75;;;0.25;77.73
66385;BME280;53426;55.872;37.462;2023-02-03T03:55:35;98433.31;;;0.41;77.72
66385;BME280;53426;55.872;37.462;2023-02-03T03:58:05;98422.25;;;0.52;77.90
66385;BME280;53426;55.872;37.462;2023-02-03T04:00:34;98432.97;;;0.47;77.86
66385;BME280;53426;55.872;37.462;2023-02-03T04:03:13;98424.66;;;0.55;77.64
66385;BME280;53426;55.872;37.462;2023-02-03T04:05:41;98421.34;;;0.53;77.71
66385;BME280;53426;55.872;37.462;2023-02-03T04:08:09;98424.66;;;0.55;77.68
66385;BME280;53426;55.872;37.462;2023-02-03T04:10:37;98432.38;;;0.56;77.42
66385;BME280;53426;55.872;37.462;2023-02-03T04:13:06;98428.09;;;0.55;77.99
66385;BME280;53426;55.872;37.462;2023-02-03T04:15:35;98423.19;;;0.51;77.82
66385;BME280;53426;55.872;37.462;2023-02-03T04:18:06;98423.19;;;0.51;77.89
66385;BME280;53426;55.872;37.462;2023-02-03T04:20:32;98414.25;;;0.55;78.06
66385;BME280;53426;55.872;37.462;2023-02-03T04:23:00;98426.16;;;0.59;77.55
66385;BME280;53426;55.872;37.462;2023-02-03T04:25:30;98419.06;;;0.61;77.34
66385;BME280;53426;55.872;37.462;2023-02-03T04:28:02;98421.78;;;0.45;77.77
66385;BME280;53426;55.872;37.462;2023-02-03T04:30:31;98437.13;;;0.50;78.05
66385;BME280;53426;55.872;37.462;2023-02-03T04:32:58;98427.91;;;0.44;78.36
66385;BME280;53426;55.872;37.462;2023-02-03T04:35:30;98432.03;;;0.48;78.14
66385;BME280;53426;55.872;37.462;2023-02-03T04:38:02;98428.09;;;0.55;78.03
66385;BME280;53426;55.872;37.462;2023-02-03T04:40:33;98435.28;;;0.52;78.16
66385;BME280;53426;55.872;37.462;2023-02-03T04:43:08;98437.69;;;0.55;78.25
66385;BME280;53426;55.872;37.462;2023-02-03T04:45:37;98427.25;;;0.55;78.14
66385;BME280;53426;55.872;37.462;2023-02-03T04:48:08;98435.38;;;0.64;78.15
66385;BME280;53426;55.872;37.462;2023-02-03T04:50:38;98415.66;;;0.46;78.08
66385;BME280;53426;55.872;37.462;2023-02-03T04:53:09;98433.22;;;0.57;78.20
66385;BME280;53426;55.872;37.462;2023-02-03T04:55:37;98427.09;;;0.44;78.38
66385;BME280;53426;55.872;37.462;2023-02-03T04:58:08;98434.44;;;0.51;78.54
66385;BME280;53426;55.872;37.462;2023-02-03T05:00:39;98432.13;;;0.47;78.35
66385;BME280;53426;55.872;37.462;2023-02-03T05:03:10;98435.66;;;0.60;78.39
66385;BME280;53426;55.872;37.462;2023-02-03T05:05:40;98417.81;;;0.54;78.26
66385;BME280;53426;55.872;37.462;2023-02-03T05:08:11;98434.69;;;0.61;78.53
66385;BME280;53426;55.872;37.462;2023-02-03T05:10:37;98435.84;;;0.57;78.67
66385;BME280;53426;55.872;37.462;2023-02-03T05:13:07;98408.13;;;0.41;78.48
66385;BME280;53426;55.872;37.462;2023-02-03T05:15:39;98437.78;;;0.53;78.18
66385;BME280;53426;55.872;37.462;2023-02-03T05:18:09;98444.00;;;0.51;78.76
66385;BME280;53426;55.872;37.462;2023-02-03T05:20:35;98432.31;;;0.44;78.71
66385;BME280;53426;55.872;37.462;2023-02-03T05:23:00;98429.72;;;0.44;78.64
66385;BME280;53426;55.872;37.462;2023-02-03T05:25:29;98434.72;;;0.47;78.58
66385;BME280;53426;55.872;37.462;2023-02-03T05:27:56;98439.56;;;0.53;78.87
66385;BME280;53426;55.872;37.462;2023-02-03T05:30:23;98428.84;;;0.57;78.82
66385;BME280;53426;55.872;37.462;2023-02-03T05:32:53;98437.22;;;0.62;78.42
66385;BME280;53426;55.872;37.462;2023-02-03T05:35:22;98441.41;;;0.65;78.34
66385;BME280;53426;55.872;37.462;2023-02-03T05:37:55;98424.50;;;0.58;78.01
66385;BME280;53426;55.872;37.462;2023-02-03T05:40:26;98436.94;;;0.67;77.74
66385;BME280;53426;55.872;37.462;2023-02-03T05:43:13;98437.69;;;0.69;77.20
66385;BME280;53426;55.872;37.462;2023-02-03T05:45:41;98427.19;;;0.56;77.20
66385;BME280;53426;55.872;37.462;2023-02-03T05:48:12;98448.75;;;0.72;77.57
66385;BME280;53426;55.872;37.462;2023-02-03T05:50:40;98439.16;;;0.73;76.87
66385;BME280;53426;55.872;37.462;2023-02-03T05:53:08;98443.16;;;0.78;76.80
66385;BME280;53426;55.872;37.462;2023-02-03T05:55:34;98443.06;;;0.80;76.56
66385;BME280;53426;55.872;37.462;2023-02-03T05:58:00;98447.91;;;0.86;76.43
66385;BME280;53426;55.872;37.462;2023-02-03T06:00:26;98446.41;;;0.82;76.45
66385;BME280;53426;55.872;37.462;2023-02-03T06:02:54;98445.31;;;0.86;76.29
66385;BME280;53426;55.872;37.462;2023-02-03T06:05:21;98439.25;;;0.86;76.07
66385;BME280;53426;55.872;37.462;2023-02-03T06:07:48;98439.44;;;0.82;76.61
66385;BME280;53426;55.872;37.462;2023-02-03T06:10:15;98443.00;;;0.81;76.19
66385;BME280;53426;55.872;37.462;2023-02-03T06:12:41;98444.00;;;0.79;76.09
66385;BME280;53426;55.872;37.462;2023-02-03T06:15:09;98444.94;;;0.78;76.02
66385;BME280;53426;55.872;37.462;2023-02-03T06:17:35;98447.16;;;0.84;76.06
66385;BME280;53426;55.872;37.462;2023-02-03T06:20:06;98443.53;;;0.87;75.94
66385;BME280;53426;55.872;37.462;2023-02-03T06:22:32;98445.09;;;0.89;75.67
66385;BME280;53426;55.872;37.462;2023-02-03T06:24:58;98443.63;;;0.85;75.65
66385;BME280;53426;55.872;37.462;2023-02-03T06:27:24;98434.31;;;0.95;75.42
66385;BME280;53426;55.872;37.462;2023-02-03T06:29:50;98446.19;;;0.99;75.09
66385;BME280;53426;55.872;37.462;2023-02-03T06:32:16;98445.09;;;1.03;74.80
66385;BME280;53426;55.872;37.462;2023-02-03T06:34:41;98439.22;;;1.00;74.85
66385;BME280;53426;55.872;37.462;2023-02-03T06:37:07;98437.13;;;0.92;75.27
66385;BME280;53426;55.872;37.462;2023-02-03T06:39:33;98452.75;;;0.92;75.27
66385;BME280;53426;55.872;37.462;2023-02-03T06:41:59;98435.97;;;0.96;75.22
66385;BME280;53426;55.872;37.462;2023-02-03T06:44:25;98458.69;;;1.08;74.80
66385;BME280;53426;55.872;37.462;2023-02-03T06:46:51;98461.28;;;1.08;74.63
66385;BME280;53426;55.872;37.462;2023-02-03T06:49:17;98456.50;;;1.15;74.54
66385;BME280;53426;55.872;37.462;2023-02-03T06:51:44;98432.88;;;1.04;74.64
66385;BME280;53426;55.872;37.462;2023-02-03T06:54:11;98454.88;;;1.26;74.30
66385;BME280;53426;55.872;37.462;2023-02-03T06:56:37;98446.97;;;1.28;73.82
66385;BME280;53426;55.872;37.462;2023-02-03T06:59:03;98446.69;;;1.33;73.53
66385;BME280;53426;55.872;37.462;2023-02-03T07:01:29;98437.94;;;1.34;73.34
66385;BME280;53426;55.872;37.462;2023-02-03T07:03:56;98429.22;;;1.47;73.61
66385;BME280;53426;55.872;37.462;2023-02-03T07:06:24;98442.28;;;1.60;72.78
66385;BME280;53426;55.872;37.462;2023-02-03T07:08:54;98442.81;;;1.65;72.79
66385;BME280;53426;55.872;37.462;2023-02-03T07:11:20;98364.53;;;1.13;72.32
66385;BME280;53426;55.872;37.462;2023-02-03T07:13:49;98444.28;;;1.56;72.60
66385;BME280;53426;55.872;37.462;2023-02-03T07:16:17;98440.88;;;1.68;72.83
66385;BME280;53426;55.872;37.462;2023-02-03T07:18:43;98430.56;;;1.92;71.93
66385;BME280;53426;55.872;37.462;2023-02-03T07:21:09;98446.06;;;2.21;71.23
66385;BME280;53426;55.872;37.462;2023-02-03T07:23:35;98442.63;;;2.33;70.74
66385;BME280;53426;55.872;37.462;2023-02-03T07:26:02;98438.34;;;2.44;70.42
66385;BME280;53426;55.872;37.462;2023-02-03T07:28:30;98424.53;;;2.30;70.22
66385;BME280;53426;55.872;37.462;2023-02-03T07:30:56;98442.28;;;3.48;68.21
66385;BME280;53426;55.872;37.462;2023-02-03T07:33:22;98440.41;;;4.31;64.82
66385;BME280;53426;55.872;37.462;2023-02-03T07:35:53;98425.47;;;5.75;61.94
66385;BME280;53426;55.872;37.462;2023-02-03T07:38:20;98419.34;;;5.85;59.26
66385;BME280;53426;55.872;37.462;2023-02-03T07:40:48;98426.69;;;6.23;58.54
66385;BME280;53426;55.872;37.462;2023-02-03T07:43:18;98416.13;;;6.65;56.45
66385;BME280;53426;55.872;37.462;2023-02-03T07:45:47;98420.78;;;5.78;58.62
66385;BME280;53426;55.872;37.462;2023-02-03T07:48:14;98432.47;;;4.88;60.81
66385;BME280;53426;55.872;37.462;2023-02-03T07:50:40;98424.47;;;4.34;62.27
66385;BME280;53426;55.872;37.462;2023-02-03T07:53:06;98439.47;;;3.86;63.54
66385;BME280;53426;55.872;37.462;2023-02-03T07:55:38;98422.97;;;3.38;64.77
66385;BME280;53426;55.872;37.462;2023-02-03T07:58:08;98438.72;;;3.25;65.36
66385;BME280;53426;55.872;37.462;2023-02-03T08:00:38;98429.56;;;3.07;65.87
66385;BME280;53426;55.872;37.462;2023-02-03T08:03:06;98427.28;;;3.03;66.17
66385;BME280;53426;55.872;37.462;2023-02-03T08:05:38;98438.38;;;2.93;66.37
66385;BME280;53426;55.872;37.462;2023-02-03T08:08:07;98435.00;;;3.04;65.84
66385;BME280;53426;55.872;37.462;2023-02-03T08:10:33;98431.91;;;2.86;66.42
66385;BME280;53426;55.872;37.462;2023-02-03T08:12:58;98427.88;;;2.70;67.17
66385;BME280;53426;55.872;37.462;2023-02-03T08:15:26;98409.72;;;2.56;67.50
66385;BME280;53426;55.872;37.462;2023-02-03T08:17:51;98428.38;;;2.87;66.93
66385;BME280;53426;55.872;37.462;2023-02-03T08:20:17;98423.97;;;2.88;66.15
66385;BME280;53426;55.872;37.462;2023-02-03T08:22:43;98407.03;;;2.81;66.66
66385;BME280;53426;55.872;37.462;2023-02-03T08:25:10;98431.91;;;2.86;66.67
66385;BME280;53426;55.872;37.462;2023-02-03T08:27:37;98416.97;;;2.76;67.07
66385;BME280;53426;55.872;37.462;2023-02-03T08:30:05;98408.78;;;2.93;66.46
66385;BME280;53426;55.872;37.462;2023-02-03T08:32:33;98422.69;;;2.93;66.29
66385;BME280;53426;55.872;37.462;2023-02-03T08:34:59;98425.09;;;2.97;66.62
66385;BME280;53426;55.872;37.462;2023-02-03T08:37:25;98397.84;;;2.75;66.75
66385;BME280;53426;55.872;37.462;2023-02-03T08:39:52;98415.56;;;2.95;66.24
66385;BME280;53426;55.872;37.462;2023-02-03T08:42:18;98416.66;;;2.80;66.76
66385;BME280;53426;55.872;37.462;2023-02-03T08:44:45;98414.28;;;2.65;67.48
66385;BME280;53426;55.872;37.462;2023-02-03T08:47:11;98414.38;;;2.63;67.75
66385;BME280;53426;55.872;37.462;2023-02-03T08:49:37;98404.16;;;2.47;68.01
66385;BME280;53426;55.872;37.462;2023-02-03T08:52:11;98423.63;;;2.56;68.32
66385;BME280;53426;55.872;37.462;2023-02-03T08:54:39;98421.09;;;2.42;68.82
66385;BME280;53426;55.872;37.462;2023-02-03T08:57:05;98412.44;;;2.29;69.12
66385;BME280;53426;55.872;37.462;2023-02-03T08:59:31;98426.31;;;2.29;69.63
66385;BME280;53426;55.872;37.462;2023-02-03T09:02:05;98419.53;;;2.27;70.04
66385;BME280;53426;55.872;37.462;2023-02-03T09:04:32;98395.72;;;2.19;70.10
66385;BME280;53426;55.872;37.462;2023-02-03T09:06:59;98405.88;;;2.23;70.29
66385;BME280;53426;55.872;37.462;2023-02-03T09:09:29;98408.66;;;2.20;70.84
66385;BME280;53426;55.872;37.462;2023-02-03T09:11:56;98418.78;;;2.25;71.14
66385;BME280;53426;55.872;37.462;2023-02-03T09:14:28;98415.78;;;2.05;71.65
66385;BME280;53426;55.872;37.462;2023-02-03T09:16:54;98420.66;;;1.97;72.14
66385;BME280;53426;55.872;37.462;2023-02-03T09:19:20;98413.56;;;1.99;72.15
66385;BME280;53426;55.872;37.462;2023-02-03T09:21:45;98416.50;;;1.95;72.71
66385;BME280;53426;55.872;37.462;2023-02-03T09:24:14;98417.63;;;2.03;72.61
66385;BME280;53426;55.872;37.462;2023-02-03T09:26:40;98410.88;;;2.01;72.80
66385;BME280;53426;55.872;37.462;2023-02-03T09:29:06;98412.09;;;1.95;72.85
66385;BME280;53426;55.872;37.462;2023-02-03T09:31:32;98421.00;;;2.05;72.88
66385;BME280;53426;55.872;37.462;2023-02-03T09:33:58;98414.94;;;2.05;72.89
66385;BME280;53426;55.872;37.462;2023-02-03T09:36:25;98385.47;;;1.90;72.81
66385;BME280;53426;55.872;37.462;2023-02-03T09:38:51;98403.56;;;2.06;72.70
66385;BME280;53426;55.872;37.462;2023-02-03T09:47:02;98415.88;;;2.04;73.01
66385;BME280;53426;55.872;37.462;2023-02-03T09:50:06;98411.06;;;2.10;73.36
66385;BME280;53426;55.872;37.462;2023-02-03T09:52:37;98398.53;;;2.16;73.53
66385;BME280;53426;55.872;37.462;2023-02-03T09:55:35;98409.00;;;2.28;72.99
66385;BME280;53426;55.872;37.462;2023-02-03T09:58:13;98411.38;;;2.31;72.52
66385;BME280;53426;55.872;37.462;2023-02-03T10:00:43;98410.88;;;2.39;72.59
66385;BME280;53426;55.872;37.462;2023-02-03T10:19:36;98398.69;;;2.63;71.37
66385;BME280;53426;55.872;37.462;2023-02-03T10:22:03;98374.91;;;2.42;71.67
66385;BME280;53426;55.872;37.462;2023-02-03T10:27:10;98405.41;;;2.42;72.06
66385;BME280;53426;55.872;37.462;2023-02-03T10:29:41;98373.16;;;2.18;71.67
66385;BME280;53426;55.872;37.462;2023-02-03T10:32:12;98408.56;;;2.22;72.10
66385;BME280;53426;55.872;37.462;2023-02-03T10:34:38;98389.75;;;2.04;72.45
66385;BME280;53426;55.872;37.462;2023-02-03T10:37:21;98403.66;;;2.17;72.58
66385;BME280;53426;55.872;37.462;2023-02-03T10:39:51;98403.97;;;2.13;73.03
66385;BME280;53426;55.872;37.462;2023-02-03T10:42:18;98405.63;;;2.14;73.08
66385;BME280;53426;55.872;37.462;2023-02-03T10:45:00;98390.91;;;2.25;73.20
66385;BME280;53426;55.872;37.462;2023-02-03T10:47:34;98396.97;;;2.13;72.47
66385;BME280;53426;55.872;37.462;2023-02-03T10:50:15;98399.28;;;2.18;73.55
66385;BME280;53426;55.872;37.462;2023-02-03T10:52:42;98391.44;;;2.05;73.86
66385;BME280;53426;55.872;37.462;2023-02-03T10:55:29;98391.97;;;2.10;73.67
66385;BME280;53426;55.872;37.462;2023-02-03T10:57:56;98383.38;;;2.08;74.21
66385;BME280;53426;55.872;37.462;2023-02-03T11:00:31;98388.31;;;2.13;73.51
66385;BME280;53426;55.872;37.462;2023-02-03T11:05:35;98365.53;;;2.02;72.95
66385;BME280;53426;55.872;37.462;2023-02-03T11:08:14;98378.41;;;2.18;72.60
66385;BME280;53426;55.872;37.462;2023-02-03T11:10:43;98351.22;;;2.07;72.27
66385;BME280;53426;55.872;37.462;2023-02-03T11:13:25;98376.50;;;2.32;72.14
66385;BME280;53426;55.872;37.462;2023-02-03T11:21:04;98383.88;;;2.51;71.07
66385;BME280;53426;55.872;37.462;2023-02-03T11:23:35;98354.75;;;2.32;71.02
66385;BME280;53426;55.872;37.462;2023-02-03T11:26:12;98368.03;;;2.29;70.81
66385;BME280;53426;55.872;37.462;2023-02-03T11:28:46;98337.31;;;2.20;70.85
66385;BME280;53426;55.872;37.462;2023-02-03T11:31:19;98359.38;;;2.28;71.38
66385;BME280;53426;55.872;37.462;2023-02-03T11:33:52;98347.25;;;2.27;71.49
66385;BME280;53426;55.872;37.462;2023-02-03T11:36:23;98306.03;;;2.07;71.17
66385;BME280;53426;55.872;37.462;2023-02-03T11:39:08;98369.78;;;2.53;71.33
66385;BME280;53426;55.872;37.462;2023-02-03T11:41:38;98355.59;;;2.32;71.53
66385;BME280;53426;55.872;37.462;2023-02-03T11:44:30;98381.91;;;2.42;71.34
66385;BME280;53426;55.872;37.462;2023-02-03T11:47:07;98371.88;;;2.48;71.40
66385;BME280;53426;55.872;37.462;2023-02-03T11:50:03;98378.13;;;2.59;70.96
66385;BME280;53426;55.872;37.462;2023-02-03T11:55:39;98372.63;;;2.50;70.98
66385;BME280;53426;55.872;37.462;2023-02-03T12:01:17;98369.69;;;2.55;70.73
66385;BME280;53426;55.872;37.462;2023-02-03T12:04:27;98371.88;;;2.61;70.54
66385;BME280;53426;55.872;37.462;2023-02-03T12:15:27;98348.13;;;2.51;70.15
66385;BME280;53426;55.872;37.462;2023-02-03T12:29:50;98372.69;;;2.62;70.99
66385;BME280;53426;55.872;37.462;2023-02-03T12:37:51;98354.19;;;2.52;71.53
66385;BME280;53426;55.872;37.462;2023-02-03T12:45:53;98353.41;;;2.39;71.11
66385;BME280;53426;55.872;37.462;2023-02-03T12:48:39;98354.75;;;2.32;71.25
66385;BME280;53426;55.872;37.462;2023-02-03T12:54:01;98351.81;;;2.24;71.42
66385;BME280;53426;55.872;37.462;2023-02-03T12:56:49;98356.84;;;2.27;71.79
66385;BME280;53426;55.872;37.462;2023-02-03T12:59:22;98333.47;;;2.13;71.57
66385;BME280;53426;55.872;37.462;2023-02-03T13:01:58;98356.53;;;2.31;71.37
66385;BME280;53426;55.872;37.462;2023-02-03T13:04:33;98352.97;;;2.45;71.00
66385;BME280;53426;55.872;37.462;2023-02-03T13:07:32;98351.91;;;2.47;70.70
66385;BME280;53426;55.872;37.462;2023-02-03T13:12:55;98352.53;;;2.51;69.77
66385;BME280;53426;55.872;37.462;2023-02-03T13:15:34;98350.88;;;2.37;69.55
66385;BME280;53426;55.872;37.462;2023-02-03T13:18:44;98358.13;;;2.34;69.54
66385;BME280;53426;55.872;37.462;2023-02-03T13:20:53;98354.34;;;2.38;69.52
66385;BME280;53426;55.872;37.462;2023-02-03T13:23:26;98316.44;;;2.20;69.39
66385;BME280;53426;55.872;37.462;2023-02-03T13:35:00;98354.28;;;2.01;71.78
66385;BME280;53426;55.872;37.462;2023-02-03T13:42:43;98359.66;;;1.86;73.17
66385;BME280;53426;55.872;37.462;2023-02-03T13:45:45;98355.09;;;1.89;73.29
66385;BME280;53426;55.872;37.462;2023-02-03T13:48:28;98358.97;;;1.96;73.32
66385;BME280;53426;55.872;37.462;2023-02-03T13:51:20;98351.66;;;2.01;73.27
66385;BME280;53426;55.872;37.462;2023-02-03T13:53:51;98349.97;;;2.00;73.38
66385;BME280;53426;55.872;37.462;2023-02-03T13:56:26;98349.88;;;1.89;72.69
66385;BME280;53426;55.872;37.462;2023-02-03T14:01:41;98336.50;;;1.81;73.55
66385;BME280;53426;55.872;37.462;2023-02-03T14:04:50;98349.22;;;1.86;72.95
66385;BME280;53426;55.872;37.462;2023-02-03T14:07:01;98349.78;;;1.91;73.07
66385;BME280;53426;55.872;37.462;2023-02-03T14:14:57;98337.53;;;1.91;73.42
66385;BME280;53426;55.872;37.462;2023-02-03T14:25:25;98362.41;;;1.84;75.51
66385;BME280;53426;55.872;37.462;2023-02-03T14:28:04;98354.13;;;1.65;75.75
66385;BME280;53426;55.872;37.462;2023-02-03T14:30:30;98372.59;;;1.62;76.30
66385;BME280;53426;55.872;37.462;2023-02-03T14:32:58;98372.38;;;1.65;77.19
66385;BME280;53426;55.872;37.462;2023-02-03T14:35:31;98347.09;;;1.53;77.53
66385;BME280;53426;55.872;37.462;2023-02-03T14:38:02;98365.19;;;1.56;77.89
66385;BME280;53426;55.872;37.462;2023-02-03T14:43:19;98369.97;;;1.49;78.56
66385;BME280;53426;55.872;37.462;2023-02-03T14:59:29;98363.88;;;1.36;79.59
66385;BME280;53426;55.872;37.462;2023-02-03T15:04:27;98368.44;;;1.33;79.97
66385;BME280;53426;55.872;37.462;2023-02-03T15:06:54;98357.78;;;1.23;80.05
66385;BME280;53426;55.872;37.462;2023-02-03T15:09:28;98372.78;;;1.46;80.32
66385;BME280;53426;55.872;37.462;2023-02-03T15:11:56;98374.44;;;1.47;79.90
66385;BME280;53426;55.872;37.462;2023-02-03T15:14:24;98364.03;;;1.47;80.10
66385;BME280;53426;55.872;37.462;2023-02-03T15:16:56;98368.72;;;1.55;79.63
66385;BME280;53426;55.872;37.462;2023-02-03T15:19:25;98360.97;;;1.53;79.82
66385;BME280;53426;55.872;37.462;2023-02-03T15:21:52;98373.81;;;1.44;79.75
66385;BME280;53426;55.872;37.462;2023-02-03T15:24:20;98368.59;;;1.44;80.18
66385;BME280;53426;55.872;37.462;2023-02-03T15:26:51;98370.25;;;1.45;80.35
66385;BME280;53426;55.872;37.462;2023-02-03T15:29:31;98372.88;;;1.45;80.19
66385;BME280;53426;55.872;37.462;2023-02-03T15:32:11;98376.94;;;1.49;80.20
66385;BME280;53426;55.872;37.462;2023-02-03T15:34:48;98371.41;;;1.41;79.98
66385;BME280;53426;55.872;37.462;2023-02-03T15:37:27;98380.69;;;1.45;79.69
66385;BME280;53426;55.872;37.462;2023-02-03T15:45:20;98365.84;;;1.33;80.41
66385;BME280;53426;55.872;37.462;2023-02-03T15:47:54;98354.34;;;1.22;80.76
66385;BME280;53426;55.872;37.462;2023-02-03T15:50:35;98385.28;;;1.41;80.64
66385;BME280;53426;55.872;37.462;2023-02-03T15:53:07;98390.25;;;1.32;80.78
66385;BME280;53426;55.872;37.462;2023-02-03T15:55:39;98389.91;;;1.23;80.96